createdAt,value
2019-06-08T00:00:13.051Z,12.20
2019-06-08T00:02:41.720Z,12.20
2019-06-08T00:05:10.784Z,12.20
2019-06-08T00:07:39.557Z,12.10
2019-06-08T00:10:09.196Z,12.10
2019-06-08T00:12:37.937Z,12.10
2019-06-08T00:15:06.900Z,12.10
2019-06-08T00:17:38.768Z,12.10
2019-06-08T00:20:07.277Z,12.10
2019-06-08T00:22:36.030Z,12.10
2019-06-08T00:25:06.486Z,12.10
2019-06-08T00:27:35.224Z,12.00
2019-06-08T00:30:06.246Z,12.00
2019-06-08T00:32:35.083Z,12.00
2019-06-08T00:35:04.911Z,12.00
2019-06-08T00:37:33.761Z,11.90
2019-06-08T00:40:02.576Z,11.80
2019-06-08T00:42:31.320Z,11.80
2019-06-08T00:45:00.109Z,11.80
2019-06-08T00:47:46.366Z,11.80
2019-06-08T00:49:59.311Z,11.80
2019-06-08T00:52:29.333Z,11.80
2019-06-08T00:54:58.092Z,11.80
2019-06-08T00:57:26.836Z,11.80
2019-06-08T00:59:55.621Z,11.80
2019-06-08T01:02:24.660Z,11.80
2019-06-08T01:04:53.478Z,11.80
2019-06-08T01:07:22.540Z,11.80
2019-06-08T01:09:51.294Z,11.80
2019-06-08T01:12:20.470Z,11.80
2019-06-08T01:14:49.410Z,11.80
2019-06-08T01:17:19.265Z,11.80
2019-06-08T01:19:48.274Z,11.90
2019-06-08T01:22:17.026Z,11.70
2019-06-08T01:24:45.763Z,11.60
2019-06-08T01:27:14.565Z,11.60
2019-06-08T01:29:43.343Z,11.70
2019-06-08T01:32:12.089Z,11.60
2019-06-08T01:34:40.818Z,11.60
2019-06-08T01:37:10.020Z,11.70
2019-06-08T01:39:38.763Z,11.70
2019-06-08T01:42:07.574Z,11.70
2019-06-08T01:44:36.347Z,11.70
2019-06-08T01:47:05.067Z,11.70
2019-06-08T01:49:33.793Z,11.70
2019-06-08T01:52:02.657Z,11.70
2019-06-08T01:54:31.602Z,11.70
2019-06-08T01:57:00.432Z,11.60
2019-06-08T01:59:29.599Z,11.60
2019-06-08T02:01:58.409Z,11.60
2019-06-08T02:04:28.108Z,11.60
2019-06-08T02:06:57.006Z,11.70
2019-06-08T02:09:26.510Z,11.60
2019-06-08T02:11:55.385Z,11.60
2019-06-08T02:14:25.042Z,11.60
2019-06-08T02:16:53.860Z,11.60
2019-06-08T02:19:22.604Z,11.50
2019-06-08T02:21:51.365Z,11.50
2019-06-08T02:24:20.177Z,11.50
2019-06-08T02:26:48.914Z,11.40
2019-06-08T02:29:17.656Z,11.40
2019-06-08T02:31:48.159Z,11.40
2019-06-08T02:34:16.864Z,11.40
2019-06-08T02:36:45.616Z,11.50
2019-06-08T02:39:14.362Z,11.50
2019-06-08T02:41:43.170Z,11.50
2019-06-08T02:44:11.939Z,11.40
2019-06-08T02:46:40.796Z,11.40
2019-06-08T02:49:10.712Z,11.40
2019-06-08T02:51:41.138Z,11.40
2019-06-08T02:54:12.007Z,11.40
2019-06-08T02:56:43.613Z,11.40
2019-06-08T02:59:14.805Z,11.30
2019-06-08T03:01:45.205Z,11.30
2019-06-08T03:04:16.278Z,11.30
2019-06-08T03:06:46.642Z,11.30
2019-06-08T03:09:16.906Z,11.20
2019-06-08T03:11:46.899Z,11.20
2019-06-08T03:14:18.351Z,11.30
2019-06-08T03:16:47.351Z,11.20
2019-06-08T03:19:21.535Z,11.20
2019-06-08T03:21:46.530Z,11.20
2019-06-08T03:24:15.274Z,11.10
2019-06-08T03:26:44.302Z,11.10
2019-06-08T03:29:13.168Z,11.10
2019-06-08T03:31:53.539Z,11.20
2019-06-08T03:34:12.339Z,11.20
2019-06-08T03:36:53.702Z,11.20
2019-06-08T03:39:11.507Z,11.10
2019-06-08T03:41:40.507Z,11.10
2019-06-08T03:44:09.716Z,11.10
2019-06-08T03:46:38.816Z,11.10
2019-06-08T03:49:08.040Z,11.00
2019-06-08T03:51:39.814Z,11.00
2019-06-08T03:54:07.193Z,11.00
2019-06-08T03:56:37.889Z,11.00
2019-06-08T03:59:06.418Z,11.00
2019-06-08T04:01:35.143Z,11.00
2019-06-08T04:04:03.886Z,11.00
2019-06-08T04:06:32.668Z,11.10
2019-06-08T04:09:01.403Z,11.10
2019-06-08T04:11:30.126Z,11.10
2019-06-08T04:13:58.876Z,11.10
2019-06-08T04:16:27.639Z,11.10
2019-06-08T04:18:56.365Z,11.10
2019-06-08T04:21:25.187Z,11.10
2019-06-08T04:23:54.535Z,11.10
2019-06-08T04:26:23.285Z,11.20
2019-06-08T04:28:52.038Z,11.20
2019-06-08T04:31:20.763Z,11.20
2019-06-08T04:33:50.865Z,11.20
2019-06-08T04:36:19.793Z,11.20
2019-06-08T04:38:50.241Z,11.20
2019-06-08T04:41:18.907Z,11.10
2019-06-08T04:43:49.726Z,11.20
2019-06-08T04:46:18.144Z,11.20
2019-06-08T04:48:47.952Z,11.20
2019-06-08T04:51:17.375Z,11.20
2019-06-08T04:53:47.219Z,11.20
2019-06-08T04:56:16.459Z,11.10
2019-06-08T04:58:46.821Z,11.20
2019-06-08T05:01:15.605Z,11.20
2019-06-08T05:03:45.592Z,11.30
2019-06-08T05:06:14.741Z,11.30
2019-06-08T05:08:45.118Z,11.20
2019-06-08T05:11:14.082Z,11.20
2019-06-08T05:13:43.299Z,11.30
2019-06-08T05:16:12.154Z,11.40
2019-06-08T05:18:41.264Z,11.50
2019-06-08T05:21:10.163Z,11.50
2019-06-08T05:23:39.290Z,11.40
2019-06-08T05:26:08.125Z,11.50
2019-06-08T05:28:36.902Z,11.50
2019-06-08T05:31:05.624Z,11.50
2019-06-08T05:33:34.352Z,11.50
2019-06-08T05:36:03.144Z,11.50
2019-06-08T05:38:31.873Z,11.60
2019-06-08T05:41:00.612Z,11.70
2019-06-08T05:43:32.086Z,11.70
2019-06-08T05:46:01.417Z,11.70
2019-06-08T05:48:30.216Z,11.70
2019-06-08T05:51:03.882Z,11.60
2019-06-08T05:53:29.367Z,11.60
2019-06-08T05:55:58.089Z,11.60
2019-06-08T05:58:26.959Z,11.60
2019-06-08T06:00:55.767Z,11.60
2019-06-08T06:03:24.499Z,11.70
2019-06-08T06:05:53.270Z,11.70
2019-06-08T06:08:21.989Z,11.60
2019-06-08T06:10:51.309Z,11.50
2019-06-08T06:13:20.377Z,11.50
2019-06-08T06:15:49.178Z,11.50
2019-06-08T06:18:17.908Z,11.50
2019-06-08T06:20:47.355Z,11.50
2019-06-08T06:23:16.115Z,11.50
2019-06-08T06:25:45.388Z,11.50
2019-06-08T06:28:14.286Z,11.60
2019-06-08T06:30:44.174Z,11.50
2019-06-08T06:33:13.055Z,11.60
2019-06-08T06:35:41.824Z,11.60
2019-06-08T06:38:10.642Z,11.70
2019-06-08T06:40:39.450Z,11.80
2019-06-08T06:43:08.201Z,11.80
2019-06-08T06:45:36.954Z,11.90
2019-06-08T06:48:05.900Z,11.90
2019-06-08T06:50:34.751Z,11.90
2019-06-08T06:53:03.518Z,11.90
2019-06-08T06:55:32.524Z,12.00
2019-06-08T06:58:01.479Z,12.00
2019-06-08T07:00:31.870Z,12.00
2019-06-08T07:03:01.677Z,12.10
2019-06-08T07:05:30.505Z,12.10
2019-06-08T07:07:59.328Z,12.10
2019-06-08T07:10:28.149Z,12.20
2019-06-08T07:12:57.092Z,12.10
2019-06-08T07:15:28.129Z,12.10
2019-06-08T07:17:58.585Z,12.20
2019-06-08T07:20:27.609Z,12.30
2019-06-08T07:22:56.441Z,12.30
2019-06-08T07:25:25.789Z,12.30
2019-06-08T07:27:55.137Z,12.30
2019-06-08T07:30:24.676Z,12.30
2019-06-08T07:32:53.403Z,12.40
2019-06-08T07:35:22.244Z,12.40
2019-06-08T07:37:51.982Z,12.50
2019-06-08T07:40:21.068Z,12.50
2019-06-08T07:42:51.462Z,12.50
2019-06-08T07:45:20.412Z,12.60
2019-06-08T07:47:49.955Z,12.70
2019-06-08T07:50:18.911Z,12.70
2019-06-08T07:52:48.023Z,12.80
2019-06-08T07:55:18.145Z,12.80
2019-06-08T07:57:48.515Z,12.80
2019-06-08T08:00:18.551Z,12.80
2019-06-08T08:02:48.114Z,12.90
2019-06-08T08:05:17.393Z,12.80
2019-06-08T08:07:46.140Z,12.80
2019-06-08T08:10:15.160Z,12.80
2019-06-08T08:12:44.288Z,12.80
2019-06-08T08:15:13.491Z,12.90
2019-06-08T08:17:42.283Z,12.80
2019-06-08T08:20:11.273Z,12.90
2019-06-08T08:22:39.989Z,12.90
2019-06-08T08:25:09.992Z,13.00
2019-06-08T08:27:38.788Z,13.00
2019-06-08T08:30:08.585Z,13.00
2019-06-08T08:32:39.684Z,13.00
2019-06-08T08:35:09.022Z,13.00
2019-06-08T08:37:38.140Z,13.10
2019-06-08T08:40:08.100Z,13.10
2019-06-08T08:42:38.670Z,13.10
2019-06-08T08:45:08.636Z,13.20
2019-06-08T08:47:38.814Z,13.30
2019-06-08T08:50:10.213Z,13.40
2019-06-08T08:52:40.825Z,13.50
2019-06-08T08:55:09.430Z,13.40
2019-06-08T08:57:41.462Z,13.40
2019-06-08T09:00:09.342Z,13.50
2019-06-08T09:02:38.166Z,13.40
2019-06-08T09:05:08.635Z,13.50
2019-06-08T09:07:38.536Z,13.70
2019-06-08T09:10:11.190Z,13.70
2019-06-08T09:12:38.994Z,13.70
2019-06-08T09:15:08.692Z,13.90
2019-06-08T09:17:38.826Z,14.10
2019-06-08T09:20:11.121Z,14.00
2019-06-08T09:22:52.550Z,14.20
2019-06-08T09:25:13.401Z,14.10
2019-06-08T09:27:40.823Z,14.20
2019-06-08T09:30:09.672Z,14.20
2019-06-08T09:32:38.560Z,14.20
2019-06-08T09:35:09.392Z,14.30
2019-06-08T09:37:37.776Z,14.20
2019-06-08T09:40:06.810Z,14.30
2019-06-08T09:42:35.593Z,14.20
2019-06-08T09:45:08.920Z,14.10
2019-06-08T09:47:38.078Z,14.10
2019-06-08T09:50:09.197Z,14.10
2019-06-08T09:52:40.952Z,14.00
2019-06-08T09:55:09.854Z,13.90
2019-06-08T09:57:38.858Z,13.80
2019-06-08T10:00:15.370Z,13.80
2019-06-08T10:02:39.135Z,13.80
2019-06-08T10:05:08.505Z,13.70
2019-06-08T10:07:38.828Z,13.80
2019-06-08T10:10:09.865Z,13.70
2019-06-08T10:12:41.097Z,13.70
2019-06-08T10:15:08.890Z,13.80
2019-06-08T10:17:37.830Z,13.80
2019-06-08T10:20:09.814Z,13.70
2019-06-08T10:22:37.081Z,13.60
2019-06-08T10:25:11.249Z,13.60
2019-06-08T10:27:39.832Z,13.70
2019-06-08T10:30:10.298Z,13.70
2019-06-08T10:32:39.353Z,13.70
2019-06-08T10:35:10.456Z,13.50
2019-06-08T10:37:39.605Z,13.50
2019-06-08T10:40:09.121Z,13.40
2019-06-08T10:42:40.078Z,13.50
2019-06-08T10:45:13.124Z,13.50
2019-06-08T10:47:40.229Z,13.50
2019-06-08T10:50:14.933Z,13.50
2019-06-08T10:52:40.554Z,13.40
2019-06-08T10:55:11.860Z,13.40
2019-06-08T10:57:40.006Z,13.40
2019-06-08T11:00:20.169Z,13.50
2019-06-08T11:02:41.739Z,13.30
2019-06-08T11:05:13.833Z,13.10
2019-06-08T11:07:41.221Z,13.10
2019-06-08T11:10:12.199Z,13.00
2019-06-08T11:12:40.583Z,12.90
2019-06-08T11:15:11.867Z,12.80
2019-06-08T11:17:40.833Z,12.80
2019-06-08T11:20:13.523Z,12.80
2019-06-08T11:22:42.055Z,12.70
2019-06-08T11:25:15.878Z,12.60
2019-06-08T11:27:41.407Z,12.60
2019-06-08T11:30:20.083Z,12.50
2019-06-08T11:32:40.697Z,12.40
2019-06-08T11:35:12.360Z,12.30
2019-06-08T11:37:43.170Z,12.30
2019-06-08T11:40:12.764Z,12.30
2019-06-08T11:42:41.794Z,12.30
2019-06-08T11:45:12.861Z,12.30
2019-06-08T11:47:41.500Z,12.20
2019-06-08T11:50:13.269Z,12.30
2019-06-08T11:52:41.313Z,12.30
2019-06-08T11:55:12.882Z,12.30
2019-06-08T11:57:40.646Z,12.30
2019-06-08T12:00:23.445Z,12.40
2019-06-08T12:02:41.285Z,12.40
2019-06-08T12:05:12.438Z,12.40
2019-06-08T12:07:40.670Z,12.40
2019-06-08T12:10:11.348Z,12.40
2019-06-08T12:12:39.822Z,12.40
2019-06-08T12:15:11.483Z,12.40
2019-06-08T12:17:38.928Z,12.40
2019-06-08T12:20:08.597Z,12.40
2019-06-08T12:22:40.122Z,12.40
2019-06-08T12:25:08.552Z,12.50
2019-06-08T12:27:40.244Z,12.50
2019-06-08T12:30:11.231Z,12.50
2019-06-08T12:32:38.145Z,12.40
2019-06-08T12:35:08.161Z,12.40
2019-06-08T12:37:38.676Z,12.40
2019-06-08T12:40:11.290Z,12.40
2019-06-08T12:42:38.285Z,12.30
2019-06-08T12:45:07.465Z,12.30
2019-06-08T12:47:38.095Z,12.40
2019-06-08T12:50:13.062Z,12.30
2019-06-08T12:52:43.011Z,12.30
2019-06-08T12:55:14.449Z,12.30
2019-06-08T12:57:40.844Z,12.30
2019-06-08T13:00:11.906Z,12.30
2019-06-08T13:02:50.752Z,12.30
2019-06-08T13:05:22.782Z,12.30
2019-06-08T13:07:50.371Z,12.30
2019-06-08T13:10:24.029Z,12.20
2019-06-08T13:12:50.654Z,12.20
2019-06-08T13:15:21.709Z,12.20
2019-06-08T13:17:50.588Z,12.30
2019-06-08T13:20:22.072Z,12.30
2019-06-08T13:22:50.749Z,12.30
2019-06-08T13:25:36.382Z,12.30
2019-06-08T13:27:50.054Z,12.30
2019-06-08T13:30:23.969Z,12.20
2019-06-08T13:32:49.664Z,12.20
2019-06-08T13:35:20.530Z,12.20
2019-06-08T13:37:48.892Z,12.20
2019-06-08T13:40:21.896Z,12.30
2019-06-08T13:42:51.276Z,12.20
2019-06-08T13:45:21.653Z,12.30
2019-06-08T13:47:50.528Z,12.30
2019-06-08T13:50:21.946Z,12.30
2019-06-08T13:52:50.596Z,12.40
2019-06-08T13:55:36.312Z,12.40
2019-06-08T13:57:49.717Z,12.50
2019-06-08T14:00:22.938Z,12.50
2019-06-08T14:02:50.850Z,12.50
2019-06-08T14:05:30.913Z,12.50
2019-06-08T14:08:00.695Z,12.50
2019-06-08T14:10:38.619Z,12.50
2019-06-08T14:13:08.772Z,12.50
2019-06-08T14:15:38.048Z,12.50
2019-06-08T14:18:08.860Z,12.50
2019-06-08T14:20:38.626Z,12.50
2019-06-08T14:23:09.156Z,12.50
2019-06-08T14:25:49.781Z,12.50
2019-06-08T14:28:08.739Z,12.50
2019-06-08T14:30:37.899Z,12.50
2019-06-08T14:33:08.356Z,12.50
2019-06-08T14:35:37.135Z,12.50
2019-06-08T14:38:05.970Z,12.50
2019-06-08T14:40:34.692Z,12.50
2019-06-08T14:43:03.544Z,12.50
2019-06-08T14:45:32.270Z,12.50
2019-06-08T14:48:01.084Z,12.50
2019-06-08T14:50:31.253Z,12.50
2019-06-08T14:53:00.151Z,12.50
2019-06-08T14:55:32.008Z,12.50
2019-06-08T14:57:59.382Z,12.60
2019-06-08T15:00:28.121Z,12.50
2019-06-08T15:02:58.938Z,12.50
2019-06-08T15:05:30.697Z,12.50
2019-06-08T15:08:00.768Z,12.50
2019-06-08T15:10:30.891Z,12.50
2019-06-08T15:12:58.988Z,12.50
2019-06-08T15:15:30.429Z,12.40
2019-06-08T15:17:58.438Z,12.40
2019-06-08T15:20:28.597Z,12.40
2019-06-08T15:22:57.987Z,12.30
2019-06-08T15:25:29.470Z,12.30
2019-06-08T15:27:58.167Z,12.30
2019-06-08T15:30:30.654Z,12.20
2019-06-08T15:32:58.612Z,12.20
2019-06-08T15:35:27.776Z,12.20
2019-06-08T15:37:58.467Z,12.30
2019-06-08T15:40:27.891Z,12.30
2019-06-08T15:42:58.534Z,12.30
2019-06-08T15:45:30.989Z,12.30
2019-06-08T15:47:58.640Z,12.40
2019-06-08T15:50:29.137Z,12.40
2019-06-08T15:53:00.043Z,12.50
2019-06-08T15:55:31.407Z,12.60
2019-06-08T15:57:59.171Z,12.60
2019-06-08T16:00:31.036Z,12.60
2019-06-08T16:02:59.570Z,12.70
2019-06-08T16:05:29.555Z,12.70
2019-06-08T16:07:58.634Z,12.80
2019-06-08T16:10:28.108Z,12.80
2019-06-08T16:12:57.293Z,12.70
2019-06-08T16:15:26.869Z,12.70
2019-06-08T16:17:57.365Z,12.70
2019-06-08T16:20:27.418Z,12.60
2019-06-08T16:22:56.403Z,12.60
2019-06-08T16:25:25.596Z,12.60
2019-06-08T16:27:54.521Z,12.60
2019-06-08T16:30:24.042Z,12.60
2019-06-08T16:32:52.894Z,12.80
2019-06-08T16:35:21.807Z,12.80
2019-06-08T16:37:50.513Z,12.80
2019-06-08T16:40:19.548Z,12.90
2019-06-08T16:42:48.333Z,12.80
2019-06-08T16:45:19.051Z,12.90
2019-06-08T16:47:47.786Z,12.90
2019-06-08T16:50:24.419Z,13.10
2019-06-08T16:52:46.996Z,13.10
2019-06-08T16:55:15.732Z,13.10
2019-06-08T16:57:44.556Z,13.10
2019-06-08T17:02:43.934Z,13.20
2019-06-08T17:05:12.979Z,13.10
2019-06-08T17:07:41.710Z,13.10
2019-06-08T17:10:10.470Z,13.20
2019-06-08T17:12:39.320Z,13.20
2019-06-08T17:15:08.057Z,13.10
2019-06-08T17:17:36.850Z,13.10
2019-06-08T17:20:09.031Z,13.10
2019-06-08T17:22:39.062Z,13.10
2019-06-08T17:25:08.542Z,13.10
2019-06-08T17:27:38.827Z,13.20
2019-06-08T17:30:08.834Z,13.20
2019-06-08T17:32:38.505Z,13.20
2019-06-08T17:35:08.169Z,13.20
2019-06-08T17:37:37.998Z,13.20
2019-06-08T17:40:07.411Z,13.20
2019-06-08T17:42:37.483Z,13.20
2019-06-08T17:45:09.316Z,13.20
2019-06-08T17:47:38.510Z,13.10
2019-06-08T17:50:08.202Z,13.20
2019-06-08T17:52:37.166Z,13.20
2019-06-08T17:55:06.746Z,13.10
2019-06-08T17:57:45.755Z,13.10
2019-06-08T18:00:08.310Z,13.10
2019-06-08T18:02:39.834Z,13.10
2019-06-08T18:05:08.380Z,13.10
2019-06-08T18:07:39.061Z,13.10
2019-06-08T18:10:08.134Z,13.10
2019-06-08T18:12:41.183Z,13.10
2019-06-08T18:15:08.338Z,13.10
2019-06-08T18:17:40.824Z,13.10
2019-06-08T18:20:11.515Z,13.20
2019-06-08T18:22:42.759Z,13.30
2019-06-08T18:25:11.807Z,13.20
2019-06-08T18:27:42.366Z,13.10
2019-06-08T18:30:12.533Z,13.10
2019-06-08T18:32:42.557Z,13.10
2019-06-08T18:35:12.809Z,13.10
2019-06-08T18:37:42.893Z,13.10
2019-06-08T18:40:14.096Z,13.00
2019-06-08T18:42:44.239Z,13.00
2019-06-08T18:45:13.786Z,13.00
2019-06-08T18:47:43.759Z,12.90
2019-06-08T18:50:12.781Z,12.80
2019-06-08T18:52:44.938Z,12.80
2019-06-08T18:55:13.374Z,12.80
2019-06-08T18:57:42.745Z,12.80
2019-06-08T19:00:13.391Z,12.90
2019-06-08T19:02:44.696Z,12.80
2019-06-08T19:05:12.618Z,12.80
2019-06-08T19:07:43.233Z,12.80
2019-06-08T19:10:15.353Z,12.70
2019-06-08T19:12:44.790Z,12.70
2019-06-08T19:15:17.898Z,12.70
2019-06-08T19:17:54.122Z,12.60
2019-06-08T19:20:17.404Z,12.60
2019-06-08T19:22:53.332Z,12.50
2019-06-08T19:25:17.559Z,12.60
2019-06-08T19:27:51.841Z,12.50
2019-06-08T19:30:20.082Z,12.60
2019-06-08T19:32:51.422Z,12.60
2019-06-08T19:35:18.652Z,12.50
2019-06-08T19:37:53.285Z,12.50
2019-06-08T19:40:18.039Z,12.40
2019-06-08T19:42:56.547Z,12.30
2019-06-08T19:45:18.169Z,12.30
2019-06-08T19:47:47.110Z,12.30
2019-06-08T19:50:17.241Z,12.30
2019-06-08T19:52:50.838Z,12.30
2019-06-08T19:55:18.248Z,12.40
2019-06-08T19:57:49.002Z,12.20
2019-06-08T20:00:18.184Z,12.10
2019-06-08T20:02:53.323Z,12.10
2019-06-08T20:05:19.456Z,12.10
2019-06-08T20:07:49.149Z,12.00
2019-06-08T20:10:18.152Z,11.90
2019-06-08T20:12:48.368Z,11.90
2019-06-08T20:15:18.385Z,11.90
2019-06-08T20:17:48.900Z,11.90
2019-06-08T20:20:18.318Z,11.90
2019-06-08T20:22:50.106Z,11.90
2019-06-08T20:25:18.218Z,11.80
2019-06-08T20:27:50.334Z,11.80
2019-06-08T20:30:18.596Z,11.80
2019-06-08T20:32:50.797Z,11.90
2019-06-08T20:35:17.798Z,11.90
2019-06-08T20:37:47.768Z,11.80
2019-06-08T20:40:18.032Z,11.90
2019-06-08T20:42:49.954Z,11.80
2019-06-08T20:45:18.124Z,11.80
2019-06-08T20:47:49.433Z,11.70
2019-06-08T20:50:17.590Z,11.70
2019-06-08T20:52:47.296Z,11.70
2019-06-08T20:55:17.616Z,11.50
2019-06-08T20:57:49.081Z,11.50
2019-06-08T21:00:18.444Z,11.40
2019-06-08T21:02:49.848Z,11.40
2019-06-08T21:05:18.252Z,11.40
2019-06-08T21:07:49.626Z,11.30
2019-06-08T21:10:17.797Z,11.30
2019-06-08T21:12:49.592Z,11.30
2019-06-08T21:15:17.781Z,11.20
2019-06-08T21:17:49.069Z,11.20
2019-06-08T21:20:17.757Z,11.20
2019-06-08T21:22:50.247Z,11.10
2019-06-08T21:25:17.575Z,11.10
2019-06-08T21:27:48.533Z,11.00
2019-06-08T21:30:21.622Z,11.00
2019-06-08T21:32:50.331Z,10.90
2019-06-08T21:35:18.332Z,11.00
2019-06-08T21:37:50.694Z,10.90
2019-06-08T21:40:17.746Z,10.90
2019-06-08T21:42:48.853Z,10.80
2019-06-08T21:45:18.980Z,10.90
2019-06-08T21:47:49.992Z,10.80
2019-06-08T21:50:18.664Z,10.80
2019-06-08T21:52:50.231Z,10.90
2019-06-08T21:55:18.009Z,10.90
2019-06-08T21:57:49.504Z,10.90
2019-06-08T22:00:35.756Z,10.80
2019-06-08T22:02:49.743Z,10.70
2019-06-08T22:05:18.566Z,10.70
2019-06-08T22:07:47.597Z,10.70
2019-06-08T22:10:17.931Z,10.70
2019-06-08T22:12:48.352Z,10.80
2019-06-08T22:15:18.261Z,10.70
2019-06-08T22:17:47.660Z,10.70
2019-06-08T22:20:18.679Z,10.70
2019-06-08T22:22:47.444Z,10.70
2019-06-08T22:25:17.547Z,10.70
2019-06-08T22:27:46.533Z,10.70
2019-06-08T22:30:34.353Z,10.70
2019-06-08T22:32:47.358Z,10.60
2019-06-08T22:35:16.322Z,10.60
2019-06-08T22:37:45.069Z,10.70
2019-06-08T22:40:13.908Z,10.60
2019-06-08T22:42:42.679Z,10.60
2019-06-08T22:45:11.527Z,10.60
2019-06-08T22:47:40.271Z,10.60
2019-06-08T22:50:09.436Z,10.60
2019-06-08T22:52:38.250Z,10.60
2019-06-08T22:55:10.663Z,10.60
2019-06-08T22:57:37.918Z,10.60
2019-06-08T23:00:14.591Z,10.50
2019-06-08T23:02:38.387Z,10.50
2019-06-08T23:05:09.044Z,10.50
2019-06-08T23:07:38.104Z,10.50
2019-06-08T23:10:09.998Z,10.40
2019-06-08T23:12:38.770Z,10.40
2019-06-08T23:15:09.038Z,10.30
2019-06-08T23:17:38.658Z,10.30
2019-06-08T23:20:08.850Z,10.20
2019-06-08T23:22:38.682Z,10.10
2019-06-08T23:25:09.449Z,10.10
2019-06-08T23:27:38.378Z,10.00
2019-06-08T23:30:10.303Z,10.00
2019-06-08T23:32:39.227Z,10.00
2019-06-08T23:35:09.565Z,10.00
2019-06-08T23:37:38.509Z,10.00
2019-06-08T23:40:07.816Z,10.10
2019-06-08T23:42:38.403Z,10.10
2019-06-08T23:45:10.391Z,10.10
2019-06-08T23:47:38.657Z,10.10
2019-06-08T23:50:11.237Z,10.20
2019-06-08T23:52:39.209Z,10.20
2019-06-08T23:55:11.707Z,10.30
2019-06-08T23:57:39.192Z,10.30
